sensor_id;sensor_type;location;lat;lon;timestamp;pressure;altitude;pressure_sealevel;temperature;humidity
74310;BME280;62722;51.142;17.052;2023-02-08T00:01:38;103092.81;;;-1.99;76.98
74310;BME280;62722;51.142;17.052;2023-02-08T00:04:06;103106.63;;;-2.00;76.65
74310;BME280;62722;51.142;17.052;2023-02-08T00:06:34;103104.06;;;-1.98;77.05
74310;BME280;62722;51.142;17.052;2023-02-08T00:09:02;103100.03;;;-1.88;77.33
74310;BME280;62722;51.142;17.052;2023-02-08T00:11:29;103103.56;;;-1.86;76.67
74310;BME280;62722;51.142;17.052;2023-02-08T00:13:57;103117.41;;;-1.84;77.23
74310;BME280;62722;51.142;17.052;2023-02-08T00:16:24;103115.94;;;-1.76;77.59
74310;BME280;62722;51.142;17.052;2023-02-08T00:18:51;103109.78;;;-1.80;76.67
74310;BME280;62722;51.142;17.052;2023-02-08T00:21:19;103115.75;;;-1.82;76.73
74310;BME280;62722;51.142;17.052;2023-02-08T00:23:47;103113.13;;;-1.84;76.96
74310;BME280;62722;51.142;17.052;2023-02-08T00:26:15;103115.69;;;-1.85;77.01
74310;BME280;62722;51.142;17.052;2023-02-08T00:28:42;103115.84;;;-1.79;77.82
74310;BME280;62722;51.142;17.052;2023-02-08T00:31:10;103121.91;;;-1.79;77.39
74310;BME280;62722;51.142;17.052;2023-02-08T00:33:37;103127.81;;;-1.83;76.97
74310;BME280;62722;51.142;17.052;2023-02-08T00:36:06;103124.53;;;-1.77;77.78
74310;BME280;62722;51.142;17.052;2023-02-08T00:38:35;103126.28;;;-1.76;77.45
74310;BME280;62722;51.142;17.052;2023-02-08T00:41:05;103124.44;;;-1.80;77.09
74310;BME280;62722;51.142;17.052;2023-02-08T00:43:33;103120.34;;;-1.74;78.04
74310;BME280;62722;51.142;17.052;2023-02-08T00:46:00;103121.19;;;-1.73;77.26
74310;BME280;62722;51.142;17.052;2023-02-08T00:48:28;103118.59;;;-1.73;77.43
74310;BME280;62722;51.142;17.052;2023-02-08T00:50:58;103110.81;;;-1.75;77.66
74310;BME280;62722;51.142;17.052;2023-02-08T00:53:25;103111.56;;;-1.79;77.78
74310;BME280;62722;51.142;17.052;2023-02-08T00:55:53;103105.66;;;-1.73;78.56
74310;BME280;62722;51.142;17.052;2023-02-08T00:58:22;103117.84;;;-1.71;77.79
74310;BME280;62722;51.142;17.052;2023-02-08T01:00:50;103115.34;;;-1.68;78.02
74310;BME280;62722;51.142;17.052;2023-02-08T01:03:18;103116.13;;;-1.70;78.07
74310;BME280;62722;51.142;17.052;2023-02-08T01:05:46;103106.38;;;-1.79;77.87
74310;BME280;62722;51.142;17.052;2023-02-08T01:08:13;103115.75;;;-1.82;77.93
74310;BME280;62722;51.142;17.052;2023-02-08T01:10:40;103117.28;;;-1.89;77.32
74310;BME280;62722;51.142;17.052;2023-02-08T01:13:07;103115.56;;;-1.88;77.16
74310;BME280;62722;51.142;17.052;2023-02-08T01:15:36;103116.44;;;-1.88;76.47
74310;BME280;62722;51.142;17.052;2023-02-08T01:18:04;103119.97;;;-1.86;76.18
74310;BME280;62722;51.142;17.052;2023-02-08T01:20:33;103113.91;;;-1.86;75.96
74310;BME280;62722;51.142;17.052;2023-02-08T01:23:01;103116.50;;;-1.86;75.77
74310;BME280;62722;51.142;17.052;2023-02-08T01:25:28;103111.38;;;-1.85;75.84
74310;BME280;62722;51.142;17.052;2023-02-08T01:27:55;103100.16;;;-1.85;75.73
74310;BME280;62722;51.142;17.052;2023-02-08T01:30:23;103109.66;;;-1.84;75.28
74310;BME280;62722;51.142;17.052;2023-02-08T01:32:52;103100.16;;;-1.84;76.12
74310;BME280;62722;51.142;17.052;2023-02-08T01:35:19;103094.97;;;-1.85;76.17
74310;BME280;62722;51.142;17.052;2023-02-08T01:37:47;103101.19;;;-1.79;76.22
74310;BME280;62722;51.142;17.052;2023-02-08T01:40:14;103099.66;;;-1.72;75.84
74310;BME280;62722;51.142;17.052;2023-02-08T01:42:41;103104.84;;;-1.72;75.91
74310;BME280;62722;51.142;17.052;2023-02-08T01:45:28;103094.53;;;-1.71;75.79
74310;BME280;62722;51.142;17.052;2023-02-08T01:48:03;103097.81;;;-1.76;74.94
74310;BME280;62722;51.142;17.052;2023-02-08T01:50:35;103104.59;;;-1.81;75.55
74310;BME280;62722;51.142;17.052;2023-02-08T01:53:04;103093.25;;;-1.85;76.09
74310;BME280;62722;51.142;17.052;2023-02-08T01:55:36;103102.72;;;-1.85;75.26
74310;BME280;62722;51.142;17.052;2023-02-08T01:58:08;103096.69;;;-1.84;75.20
74310;BME280;62722;51.142;17.052;2023-02-08T02:00:35;103102.16;;;-1.75;75.86
74310;BME280;62722;51.142;17.052;2023-02-08T02:03:05;103094.53;;;-1.71;75.95
74310;BME280;62722;51.142;17.052;2023-02-08T02:05:39;103092.84;;;-1.70;75.46
74310;BME280;62722;51.142;17.052;2023-02-08T02:08:08;103086.72;;;-1.72;75.98
74310;BME280;62722;51.142;17.052;2023-02-08T02:10:36;103087.69;;;-1.69;75.95
74310;BME280;62722;51.142;17.052;2023-02-08T02:13:07;103079.97;;;-1.67;75.54
74310;BME280;62722;51.142;17.052;2023-02-08T02:15:35;103074.78;;;-1.67;75.18
74310;BME280;62722;51.142;17.052;2023-02-08T02:18:05;103076.50;;;-1.68;75.40
74310;BME280;62722;51.142;17.052;2023-02-08T02:20:45;103069.63;;;-1.67;75.59
74310;BME280;62722;51.142;17.052;2023-02-08T02:23:30;103065.84;;;-1.78;74.05
74310;BME280;62722;51.142;17.052;2023-02-08T02:29:20;103054.59;;;-1.79;74.64
74310;BME280;62722;51.142;17.052;2023-02-08T02:32:08;103071.09;;;-1.75;74.61
74310;BME280;62722;51.142;17.052;2023-02-08T02:34:40;103075.53;;;-1.71;74.69
74310;BME280;62722;51.142;17.052;2023-02-08T02:37:20;103078.22;;;-1.68;74.22
74310;BME280;62722;51.142;17.052;2023-02-08T02:40:01;103077.25;;;-1.72;73.13
74310;BME280;62722;51.142;17.052;2023-02-08T02:42:35;103074.44;;;-1.79;73.23
74310;BME280;62722;51.142;17.052;2023-02-08T02:45:31;103055.28;;;-1.84;73.23
74310;BME280;62722;51.142;17.052;2023-02-08T02:48:05;103081.47;;;-1.75;73.22
74310;BME280;62722;51.142;17.052;2023-02-08T02:50:40;103084.03;;;-1.75;73.30
74310;BME280;62722;51.142;17.052;2023-02-08T02:53:11;103078.94;;;-1.72;73.36
74310;BME280;62722;51.142;17.052;2023-02-08T02:55:46;103085.84;;;-1.73;72.89
74310;BME280;62722;51.142;17.052;2023-02-08T02:58:17;103073.91;;;-1.68;73.77
74310;BME280;62722;51.142;17.052;2023-02-08T03:00:51;103074.00;;;-1.65;73.61
74310;BME280;62722;51.142;17.052;2023-02-08T03:03:23;103077.56;;;-1.61;74.09
74310;BME280;62722;51.142;17.052;2023-02-08T03:05:52;103073.25;;;-1.61;72.99
74310;BME280;62722;51.142;17.052;2023-02-08T03:08:29;103076.66;;;-1.62;73.42
74310;BME280;62722;51.142;17.052;2023-02-08T03:11:13;103075.03;;;-1.58;73.85
74310;BME280;62722;51.142;17.052;2023-02-08T03:14:00;103083.66;;;-1.59;72.81
74310;BME280;62722;51.142;17.052;2023-02-08T03:16:31;103091.38;;;-1.61;73.34
74310;BME280;62722;51.142;17.052;2023-02-08T03:19:11;103082.72;;;-1.63;73.91
74310;BME280;62722;51.142;17.052;2023-02-08T03:21:50;103076.81;;;-1.57;74.51
74310;BME280;62722;51.142;17.052;2023-02-08T03:24:26;103079.47;;;-1.54;73.51
74310;BME280;62722;51.142;17.052;2023-02-08T03:26:58;103090.78;;;-1.52;74.06
74310;BME280;62722;51.142;17.052;2023-02-08T03:29:42;103101.13;;;-1.52;74.09
74310;BME280;62722;51.142;17.052;2023-02-08T03:32:15;103093.44;;;-1.49;74.36
74310;BME280;62722;51.142;17.052;2023-02-08T03:34:47;103093.41;;;-1.51;74.13
74310;BME280;62722;51.142;17.052;2023-02-08T03:37:20;103096.03;;;-1.49;74.14
74310;BME280;62722;51.142;17.052;2023-02-08T03:39:55;103092.50;;;-1.51;74.19
74310;BME280;62722;51.142;17.052;2023-02-08T03:42:27;103103.00;;;-1.48;74.13
74310;BME280;62722;51.142;17.052;2023-02-08T03:44:59;103102.88;;;-1.51;73.21
74310;BME280;62722;51.142;17.052;2023-02-08T03:47:31;103103.59;;;-1.57;73.10
74310;BME280;62722;51.142;17.052;2023-02-08T03:50:05;103099.22;;;-1.59;73.56
74310;BME280;62722;51.142;17.052;2023-02-08T03:52:35;103105.16;;;-1.62;73.96
74310;BME280;62722;51.142;17.052;2023-02-08T03:55:05;103110.19;;;-1.66;73.50
74310;BME280;62722;51.142;17.052;2023-02-08T03:57:37;103111.13;;;-1.64;74.07
74310;BME280;62722;51.142;17.052;2023-02-08T04:00:11;103110.31;;;-1.63;74.47
74310;BME280;62722;51.142;17.052;2023-02-08T04:02:43;103107.66;;;-1.65;74.33
74310;BME280;62722;51.142;17.052;2023-02-08T04:05:14;103109.56;;;-1.59;74.13
74310;BME280;62722;51.142;17.052;2023-02-08T04:07:42;103113.00;;;-1.59;74.00
74310;BME280;62722;51.142;17.052;2023-02-08T04:10:09;103109.44;;;-1.64;73.30
74310;BME280;62722;51.142;17.052;2023-02-08T04:12:36;103108.41;;;-1.69;73.73
74310;BME280;62722;51.142;17.052;2023-02-08T04:15:04;103107.66;;;-1.65;73.90
74310;BME280;62722;51.142;17.052;2023-02-08T04:17:32;103110.34;;;-1.62;74.12
74310;BME280;62722;51.142;17.052;2023-02-08T04:19:59;103112.19;;;-1.58;74.79
74310;BME280;62722;51.142;17.052;2023-02-08T04:22:27;103105.34;;;-1.56;74.89
74310;BME280;62722;51.142;17.052;2023-02-08T04:24:54;103120.00;;;-1.56;73.55
74310;BME280;62722;51.142;17.052;2023-02-08T04:27:22;103101.81;;;-1.58;74.47
74310;BME280;62722;51.142;17.052;2023-02-08T04:29:49;103112.28;;;-1.55;74.89
74310;BME280;62722;51.142;17.052;2023-02-08T04:32:16;103107.09;;;-1.55;74.62
74310;BME280;62722;51.142;17.052;2023-02-08T04:34:43;103104.56;;;-1.53;73.86
74310;BME280;62722;51.142;17.052;2023-02-08T04:37:10;103108.06;;;-1.51;74.14
74310;BME280;62722;51.142;17.052;2023-02-08T04:39:40;103115.81;;;-1.51;74.33
74310;BME280;62722;51.142;17.052;2023-02-08T04:42:08;103116.56;;;-1.55;73.43
74310;BME280;62722;51.142;17.052;2023-02-08T04:44:35;103107.00;;;-1.58;73.41
74310;BME280;62722;51.142;17.052;2023-02-08T04:47:02;103114.75;;;-1.59;74.24
74310;BME280;62722;51.142;17.052;2023-02-08T04:49:29;103120.91;;;-1.56;74.87
74310;BME280;62722;51.142;17.052;2023-02-08T04:51:57;103106.19;;;-1.55;74.48
74310;BME280;62722;51.142;17.052;2023-02-08T04:54:24;103121.84;;;-1.52;73.38
74310;BME280;62722;51.142;17.052;2023-02-08T04:56:53;103108.94;;;-1.51;73.76
74310;BME280;62722;51.142;17.052;2023-02-08T04:59:20;103113.06;;;-1.57;73.34
74310;BME280;62722;51.142;17.052;2023-02-08T05:01:47;103112.03;;;-1.62;73.86
74310;BME280;62722;51.142;17.052;2023-02-08T05:04:14;103104.19;;;-1.65;74.18
74310;BME280;62722;51.142;17.052;2023-02-08T05:06:43;103108.41;;;-1.69;74.72
74310;BME280;62722;51.142;17.052;2023-02-08T05:09:10;103101.44;;;-1.71;74.91
74310;BME280;62722;51.142;17.052;2023-02-08T05:11:37;103104.09;;;-1.68;75.24
74310;BME280;62722;51.142;17.052;2023-02-08T05:14:05;103106.78;;;-1.65;75.83
74310;BME280;62722;51.142;17.052;2023-02-08T05:16:33;103101.66;;;-1.64;74.80
74310;BME280;62722;51.142;17.052;2023-02-08T05:19:00;103092.06;;;-1.66;74.43
74310;BME280;62722;51.142;17.052;2023-02-08T05:21:27;103091.97;;;-1.69;75.19
74310;BME280;62722;51.142;17.052;2023-02-08T05:23:54;103092.72;;;-1.73;75.17
74310;BME280;62722;51.142;17.052;2023-02-08T05:26:22;103104.59;;;-1.81;75.58
74310;BME280;62722;51.142;17.052;2023-02-08T05:28:49;103099.13;;;-1.90;75.25
74310;BME280;62722;51.142;17.052;2023-02-08T05:31:20;103111.78;;;-2.00;76.25
74310;BME280;62722;51.142;17.052;2023-02-08T05:33:47;103116.03;;;-2.02;76.77
74310;BME280;62722;51.142;17.052;2023-02-08T05:36:15;103108.16;;;-2.05;76.95
74310;BME280;62722;51.142;17.052;2023-02-08T05:38:42;103113.97;;;-2.12;76.98
74310;BME280;62722;51.142;17.052;2023-02-08T05:41:09;103116.34;;;-2.19;76.99
74310;BME280;62722;51.142;17.052;2023-02-08T05:43:37;103119.50;;;-2.28;77.38
74310;BME280;62722;51.142;17.052;2023-02-08T05:46:04;103126.28;;;-2.31;78.39
74310;BME280;62722;51.142;17.052;2023-02-08T05:48:33;103116.66;;;-2.35;78.32
74310;BME280;62722;51.142;17.052;2023-02-08T05:51:00;103120.75;;;-2.42;77.70
74310;BME280;62722;51.142;17.052;2023-02-08T05:53:28;103115.25;;;-2.51;77.92
74310;BME280;62722;51.142;17.052;2023-02-08T05:55:56;103121.03;;;-2.60;78.63
74310;BME280;62722;51.142;17.052;2023-02-08T05:58:24;103118.19;;;-2.67;78.55
74310;BME280;62722;51.142;17.052;2023-02-08T06:00:51;103117.25;;;-2.69;79.30
74310;BME280;62722;51.142;17.052;2023-02-08T06:03:19;103122.41;;;-2.69;79.36
74310;BME280;62722;51.142;17.052;2023-02-08T06:05:47;103123.13;;;-2.73;78.83
74310;BME280;62722;51.142;17.052;2023-02-08T06:08:14;103113.31;;;-2.83;79.32
74310;BME280;62722;51.142;17.052;2023-02-08T06:10:42;103132.97;;;-2.88;79.76
74310;BME280;62722;51.142;17.052;2023-02-08T06:13:10;103117.28;;;-2.93;80.23
74310;BME280;62722;51.142;17.052;2023-02-08T06:15:37;103128.44;;;-2.94;80.52
74310;BME280;62722;51.142;17.052;2023-02-08T06:18:05;103129.22;;;-2.97;80.38
74310;BME280;62722;51.142;17.052;2023-02-08T06:20:32;103120.44;;;-3.02;80.41
74310;BME280;62722;51.142;17.052;2023-02-08T06:23:01;103129.13;;;-3.00;80.89
74310;BME280;62722;51.142;17.052;2023-02-08T06:25:28;103129.94;;;-3.01;80.82
74310;BME280;62722;51.142;17.052;2023-02-08T06:27:55;103127.38;;;-3.01;80.89
74310;BME280;62722;51.142;17.052;2023-02-08T06:30:22;103128.34;;;-2.97;81.41
74310;BME280;62722;51.142;17.052;2023-02-08T06:32:50;103121.50;;;-2.95;81.45
74310;BME280;62722;51.142;17.052;2023-02-08T06:35:17;103122.66;;;-2.87;81.57
74310;BME280;62722;51.142;17.052;2023-02-08T06:37:44;103124.53;;;-2.83;81.13
74310;BME280;62722;51.142;17.052;2023-02-08T06:40:13;103133.78;;;-2.89;80.90
74310;BME280;62722;51.142;17.052;2023-02-08T06:42:40;103132.72;;;-2.95;81.18
74310;BME280;62722;51.142;17.052;2023-02-08T06:45:08;103133.44;;;-2.99;81.69
74310;BME280;62722;51.142;17.052;2023-02-08T06:47:35;103135.13;;;-3.01;81.40
74310;BME280;62722;51.142;17.052;2023-02-08T06:50:03;103141.72;;;-3.09;81.20
74310;BME280;62722;51.142;17.052;2023-02-08T06:52:31;103139.78;;;-3.14;81.74
74310;BME280;62722;51.142;17.052;2023-02-08T06:54:58;103144.06;;;-3.15;82.39
74310;BME280;62722;51.142;17.052;2023-02-08T06:57:27;103149.09;;;-3.18;82.08
74310;BME280;62722;51.142;17.052;2023-02-08T06:59:54;103154.41;;;-3.15;82.72
74310;BME280;62722;51.142;17.052;2023-02-08T07:02:21;103150.97;;;-3.14;82.42
74310;BME280;62722;51.142;17.052;2023-02-08T07:04:49;103155.34;;;-3.13;82.01
74310;BME280;62722;51.142;17.052;2023-02-08T07:07:16;103154.34;;;-3.16;82.30
74310;BME280;62722;51.142;17.052;2023-02-08T07:09:44;103165.88;;;-3.07;82.83
74310;BME280;62722;51.142;17.052;2023-02-08T07:12:11;103170.47;;;-3.00;82.67
74310;BME280;62722;51.142;17.052;2023-02-08T07:14:41;103166.16;;;-2.99;82.40
74310;BME280;62722;51.142;17.052;2023-02-08T07:17:09;103166.13;;;-3.01;82.63
74310;BME280;62722;51.142;17.052;2023-02-08T07:19:37;103180.13;;;-2.94;82.76
74310;BME280;62722;51.142;17.052;2023-02-08T07:22:05;103193.22;;;-2.89;82.96
74310;BME280;62722;51.142;17.052;2023-02-08T07:24:34;103187.38;;;-2.84;82.70
74310;BME280;62722;51.142;17.052;2023-02-08T07:27:02;103181.66;;;-2.75;82.44
74310;BME280;62722;51.142;17.052;2023-02-08T07:29:30;103186.22;;;-2.68;82.75
74310;BME280;62722;51.142;17.052;2023-02-08T07:32:00;103193.25;;;-2.64;82.54
74310;BME280;62722;51.142;17.052;2023-02-08T07:34:29;103192.72;;;-2.56;82.91
74310;BME280;62722;51.142;17.052;2023-02-08T07:36:57;103188.56;;;-2.51;82.23
74310;BME280;62722;51.142;17.052;2023-02-08T07:39:24;103202.34;;;-2.52;81.92
74310;BME280;62722;51.142;17.052;2023-02-08T07:41:52;103196.38;;;-2.49;82.30
74310;BME280;62722;51.142;17.052;2023-02-08T07:44:19;103200.84;;;-2.45;82.16
74310;BME280;62722;51.142;17.052;2023-02-08T07:46:46;103198.41;;;-2.40;82.38
74310;BME280;62722;51.142;17.052;2023-02-08T07:49:15;103203.84;;;-2.33;82.58
74310;BME280;62722;51.142;17.052;2023-02-08T07:51:42;103214.38;;;-2.27;82.60
74310;BME280;62722;51.142;17.052;2023-02-08T07:54:10;103205.81;;;-2.26;82.34
74310;BME280;62722;51.142;17.052;2023-02-08T07:56:37;103214.56;;;-2.21;82.90
74310;BME280;62722;51.142;17.052;2023-02-08T07:59:04;103211.38;;;-2.14;82.84
74310;BME280;62722;51.142;17.052;2023-02-08T08:01:31;103219.25;;;-2.11;82.66
74310;BME280;62722;51.142;17.052;2023-02-08T08:03:59;103219.44;;;-2.05;82.68
74310;BME280;62722;51.142;17.052;2023-02-08T08:06:27;103223.84;;;-2.02;82.79
74310;BME280;62722;51.142;17.052;2023-02-08T08:08:55;103218.91;;;-1.94;82.82
74310;BME280;62722;51.142;17.052;2023-02-08T08:11:22;103223.34;;;-1.90;82.40
74310;BME280;62722;51.142;17.052;2023-02-08T08:13:50;103224.41;;;-1.85;82.51
74310;BME280;62722;51.142;17.052;2023-02-08T08:16:17;103222.72;;;-1.83;82.10
74310;BME280;62722;51.142;17.052;2023-02-08T08:18:45;103225.31;;;-1.83;82.02
74310;BME280;62722;51.142;17.052;2023-02-08T08:21:13;103226.25;;;-1.81;82.07
74310;BME280;62722;51.142;17.052;2023-02-08T08:23:43;103216.75;;;-1.81;82.09
74310;BME280;62722;51.142;17.052;2023-02-08T08:26:12;103207.50;;;-1.74;82.33
74310;BME280;62722;51.142;17.052;2023-02-08T08:28:40;103207.69;;;-1.68;82.05
74310;BME280;62722;51.142;17.052;2023-02-08T08:31:11;103211.41;;;-1.59;81.98
74310;BME280;62722;51.142;17.052;2023-02-08T08:33:39;103206.44;;;-1.53;81.46
74310;BME280;62722;51.142;17.052;2023-02-08T08:36:07;103212.63;;;-1.48;81.54
74310;BME280;62722;51.142;17.052;2023-02-08T08:38:35;103198.13;;;-1.42;81.50
74310;BME280;62722;51.142;17.052;2023-02-08T08:41:07;103210.47;;;-1.34;81.56
74310;BME280;62722;51.142;17.052;2023-02-08T08:43:34;103207.16;;;-1.30;80.96
74310;BME280;62722;51.142;17.052;2023-02-08T08:46:03;103199.47;;;-1.27;80.66
74310;BME280;62722;51.142;17.052;2023-02-08T08:48:30;103208.22;;;-1.22;80.86
74310;BME280;62722;51.142;17.052;2023-02-08T08:50:58;103205.78;;;-1.17;80.87
74310;BME280;62722;51.142;17.052;2023-02-08T08:53:25;103200.81;;;-1.10;80.91
74310;BME280;62722;51.142;17.052;2023-02-08T08:55:52;103199.31;;;-1.02;80.65
74310;BME280;62722;51.142;17.052;2023-02-08T08:58:21;103201.16;;;-0.98;80.26
74310;BME280;62722;51.142;17.052;2023-02-08T09:00:49;103212.44;;;-0.95;80.05
74310;BME280;62722;51.142;17.052;2023-02-08T09:03:16;103210.78;;;-0.93;80.07
74310;BME280;62722;51.142;17.052;2023-02-08T09:05:43;103205.69;;;-0.90;80.24
74310;BME280;62722;51.142;17.052;2023-02-08T09:08:12;103209.16;;;-0.90;80.80
74310;BME280;62722;51.142;17.052;2023-02-08T09:10:39;103211.97;;;-0.82;79.72
74310;BME280;62722;51.142;17.052;2023-02-08T09:13:07;103205.97;;;-0.81;79.68
74310;BME280;62722;51.142;17.052;2023-02-08T09:15:39;103203.44;;;-0.78;79.53
74310;BME280;62722;51.142;17.052;2023-02-08T09:18:07;103203.56;;;-0.74;79.53
74310;BME280;62722;51.142;17.052;2023-02-08T09:20:36;103207.09;;;-0.72;79.40
74310;BME280;62722;51.142;17.052;2023-02-08T09:23:03;103208.88;;;-0.69;79.41
74310;BME280;62722;51.142;17.052;2023-02-08T09:25:31;103221.00;;;-0.68;79.13
74310;BME280;62722;51.142;17.052;2023-02-08T09:27:58;103215.75;;;-0.71;78.73
74310;BME280;62722;51.142;17.052;2023-02-08T09:30:25;103213.16;;;-0.71;78.79
74310;BME280;62722;51.142;17.052;2023-02-08T09:32:54;103216.56;;;-0.72;78.86
74310;BME280;62722;51.142;17.052;2023-02-08T09:35:21;103214.13;;;-0.66;78.80
74310;BME280;62722;51.142;17.052;2023-02-08T09:37:51;103214.13;;;-0.66;78.25
74310;BME280;62722;51.142;17.052;2023-02-08T09:40:21;103215.91;;;-0.65;78.40
74310;BME280;62722;51.142;17.052;2023-02-08T09:42:56;103215.16;;;-0.61;78.61
74310;BME280;62722;51.142;17.052;2023-02-08T09:45:48;103214.34;;;-0.59;78.59
74310;BME280;62722;51.142;17.052;2023-02-08T09:48:20;103214.47;;;-0.54;78.34
74310;BME280;62722;51.142;17.052;2023-02-08T09:50:54;103211.97;;;-0.51;78.69
74310;BME280;62722;51.142;17.052;2023-02-08T09:53:28;103204.31;;;-0.46;78.53
74310;BME280;62722;51.142;17.052;2023-02-08T09:56:00;103200.91;;;-0.44;77.91
74310;BME280;62722;51.142;17.052;2023-02-08T09:58:34;103209.50;;;-0.46;78.15
74310;BME280;62722;51.142;17.052;2023-02-08T10:01:04;103201.66;;;-0.48;78.25
74310;BME280;62722;51.142;17.052;2023-02-08T10:03:37;103201.75;;;-0.45;78.26
74310;BME280;62722;51.142;17.052;2023-02-08T10:06:06;103208.66;;;-0.45;78.54
74310;BME280;62722;51.142;17.052;2023-02-08T10:08:35;103208.66;;;-0.45;78.44
74310;BME280;62722;51.142;17.052;2023-02-08T10:11:11;103205.94;;;-0.50;78.63
74310;BME280;62722;51.142;17.052;2023-02-08T10:14:03;103197.31;;;-0.49;78.50
74310;BME280;62722;51.142;17.052;2023-02-08T10:16:43;103207.63;;;-0.52;78.98
74310;BME280;62722;51.142;17.052;2023-02-08T10:19:36;103198.22;;;-0.48;79.05
74310;BME280;62722;51.142;17.052;2023-02-08T10:22:17;103194.88;;;-0.44;79.07
74310;BME280;62722;51.142;17.052;2023-02-08T10:24:59;103194.97;;;-0.40;78.50
74310;BME280;62722;51.142;17.052;2023-02-08T10:27:41;103190.78;;;-0.35;78.91
74310;BME280;62722;51.142;17.052;2023-02-08T10:30:19;103178.63;;;-0.36;79.57
74310;BME280;62722;51.142;17.052;2023-02-08T10:32:59;103185.72;;;-0.29;78.58
74310;BME280;62722;51.142;17.052;2023-02-08T10:35:31;103188.38;;;-0.27;78.63
74310;BME280;62722;51.142;17.052;2023-02-08T10:38:21;103175.41;;;-0.26;78.74
74310;BME280;62722;51.142;17.052;2023-02-08T10:40:51;103177.94;;;-0.30;78.93
74310;BME280;62722;51.142;17.052;2023-02-08T10:43:29;103172.66;;;-0.33;79.07
74310;BME280;62722;51.142;17.052;2023-02-08T10:46:06;103171.81;;;-0.32;79.51
74310;BME280;62722;51.142;17.052;2023-02-08T10:48:45;103174.41;;;-0.32;79.28
74310;BME280;62722;51.142;17.052;2023-02-08T10:51:21;103178.81;;;-0.28;79.77
74310;BME280;62722;51.142;17.052;2023-02-08T10:53:48;103173.69;;;-0.27;79.84
74310;BME280;62722;51.142;17.052;2023-02-08T10:56:40;103172.06;;;-0.22;79.42
74310;BME280;62722;51.142;17.052;2023-02-08T10:59:15;103167.00;;;-0.17;79.54
74310;BME280;62722;51.142;17.052;2023-02-08T11:01:47;103160.22;;;-0.11;79.16
74310;BME280;62722;51.142;17.052;2023-02-08T11:04:15;103149.84;;;-0.11;79.20
74310;BME280;62722;51.142;17.052;2023-02-08T11:06:46;103159.56;;;-0.02;79.42
74310;BME280;62722;51.142;17.052;2023-02-08T11:09:22;103151.97;;;0.06;79.35
74310;BME280;62722;51.142;17.052;2023-02-08T11:11:50;103146.13;;;0.14;79.23
74310;BME280;62722;51.142;17.052;2023-02-08T11:14:24;103159.25;;;0.20;79.23
74310;BME280;62722;51.142;17.052;2023-02-08T11:16:55;103161.84;;;0.20;79.14
74310;BME280;62722;51.142;17.052;2023-02-08T11:19:31;103145.41;;;0.21;78.89
74310;BME280;62722;51.142;17.052;2023-02-08T11:22:02;103149.63;;;0.16;78.77
74310;BME280;62722;51.142;17.052;2023-02-08T11:24:33;103140.94;;;0.14;78.98
74310;BME280;62722;51.142;17.052;2023-02-08T11:27:16;103136.84;;;0.25;79.07
74310;BME280;62722;51.142;17.052;2023-02-08T11:29:43;103129.13;;;0.28;78.29
74310;BME280;62722;51.142;17.052;2023-02-08T11:32:16;103131.63;;;0.24;78.58
74310;BME280;62722;51.142;17.052;2023-02-08T11:34:44;103131.50;;;0.18;79.55
74310;BME280;62722;51.142;17.052;2023-02-08T11:37:16;103130.72;;;0.22;79.13
74310;BME280;62722;51.142;17.052;2023-02-08T11:39:48;103122.22;;;0.30;78.90
74310;BME280;62722;51.142;17.052;2023-02-08T11:42:19;103128.31;;;0.31;78.77
74310;BME280;62722;51.142;17.052;2023-02-08T11:44:48;103134.44;;;0.34;78.79
74310;BME280;62722;51.142;17.052;2023-02-08T11:47:21;103124.16;;;0.39;79.01
74310;BME280;62722;51.142;17.052;2023-02-08T11:49:52;103130.50;;;0.52;78.45
74310;BME280;62722;51.142;17.052;2023-02-08T11:52:23;103129.91;;;0.65;78.13
74310;BME280;62722;51.142;17.052;2023-02-08T11:54:52;103122.16;;;0.66;78.04
74310;BME280;62722;51.142;17.052;2023-02-08T11:57:22;103115.28;;;0.70;77.64
74310;BME280;62722;51.142;17.052;2023-02-08T11:59:51;103111.75;;;0.66;77.64
74310;BME280;62722;51.142;17.052;2023-02-08T12:02:37;103117.69;;;0.61;77.93
74310;BME280;62722;51.142;17.052;2023-02-08T12:05:09;103113.28;;;0.57;77.42
74310;BME280;62722;51.142;17.052;2023-02-08T12:07:55;103111.38;;;0.48;77.72
74310;BME280;62722;51.142;17.052;2023-02-08T12:10:48;103108.56;;;0.39;78.36
74310;BME280;62722;51.142;17.052;2023-02-08T12:13:36;103104.09;;;0.33;78.53
74310;BME280;62722;51.142;17.052;2023-02-08T12:16:20;103108.63;;;0.40;79.01
74310;BME280;62722;51.142;17.052;2023-02-08T12:19:17;103108.78;;;0.48;79.02
74310;BME280;62722;51.142;17.052;2023-02-08T12:21:55;103106.28;;;0.54;78.59
74310;BME280;62722;51.142;17.052;2023-02-08T12:24:33;103103.81;;;0.60;78.37
74310;BME280;62722;51.142;17.052;2023-02-08T12:27:14;103098.59;;;0.59;78.47
74310;BME280;62722;51.142;17.052;2023-02-08T12:29:56;103108.22;;;0.64;77.81
74310;BME280;62722;51.142;17.052;2023-02-08T12:32:44;103100.50;;;0.67;77.53
74310;BME280;62722;51.142;17.052;2023-02-08T12:35:40;103094.44;;;0.68;78.31
74310;BME280;62722;51.142;17.052;2023-02-08T12:38:19;103100.53;;;0.69;77.66
74310;BME280;62722;51.142;17.052;2023-02-08T12:41:15;103100.44;;;0.64;77.70
74310;BME280;62722;51.142;17.052;2023-02-08T12:43:50;103109.94;;;0.64;77.51
74310;BME280;62722;51.142;17.052;2023-02-08T12:46:37;103097.72;;;0.58;76.64
74310;BME280;62722;51.142;17.052;2023-02-08T12:49:20;103106.25;;;0.51;77.63
74310;BME280;62722;51.142;17.052;2023-02-08T12:51:58;103099.16;;;0.44;77.52
74310;BME280;62722;51.142;17.052;2023-02-08T12:54:32;103091.28;;;0.41;76.63
74310;BME280;62722;51.142;17.052;2023-02-08T12:57:04;103093.03;;;0.40;77.03
74310;BME280;62722;51.142;17.052;2023-02-08T12:59:37;103082.47;;;0.33;76.29
74310;BME280;62722;51.142;17.052;2023-02-08T13:02:15;103085.06;;;0.33;76.52
74310;BME280;62722;51.142;17.052;2023-02-08T13:04:46;103096.13;;;0.24;76.48